sensor_id;sensor_type;location;lat;lon;timestamp;pressure;altitude;pressure_sealevel;temperature;humidity
51081;BME280;37130;55.670;37.596;2022-08-21T00:02:01;100286.28;;;16.99;43.67
51081;BME280;37130;55.670;37.596;2022-08-21T00:04:36;100391.94;;;17.64;43.63
51081;BME280;37130;55.670;37.596;2022-08-21T00:07:21;100395.28;;;17.67;43.52
51081;BME280;37130;55.670;37.596;2022-08-21T00:10:05;100395.47;;;17.64;43.60
51081;BME280;37130;55.670;37.596;2022-08-21T00:12:42;100380.19;;;17.52;43.74
51081;BME280;37130;55.670;37.596;2022-08-21T00:15:21;100385.53;;;17.52;43.63
51081;BME280;37130;55.670;37.596;2022-08-21T00:18:16;100390.25;;;17.48;43.63
51081;BME280;37130;55.670;37.596;2022-08-21T00:20:50;100356.22;;;17.22;44.06
51081;BME280;37130;55.670;37.596;2022-08-21T00:23:55;100388.13;;;17.39;43.96
51081;BME280;37130;55.670;37.596;2022-08-21T00:26:27;100368.38;;;17.27;43.84
51081;BME280;37130;55.670;37.596;2022-08-21T00:28:55;100400.03;;;17.35;44.08
51081;BME280;37130;55.670;37.596;2022-08-21T00:31:25;100271.63;;;16.62;43.85
51081;BME280;37130;55.670;37.596;2022-08-21T00:34:01;100363.69;;;17.17;43.95
51081;BME280;37130;55.670;37.596;2022-08-21T00:36:39;100369.81;;;17.19;43.94
51081;BME280;37130;55.670;37.596;2022-08-21T00:39:10;100384.50;;;17.26;43.90
51081;BME280;37130;55.670;37.596;2022-08-21T00:41:42;100387.31;;;17.24;44.15
51081;BME280;37130;55.670;37.596;2022-08-21T00:44:27;100382.31;;;17.18;44.06
51081;BME280;37130;55.670;37.596;2022-08-21T00:46:56;100362.94;;;17.00;44.09
51081;BME280;37130;55.670;37.596;2022-08-21T00:49:32;100364.00;;;16.98;44.33
51081;BME280;37130;55.670;37.596;2022-08-21T00:52:00;100378.50;;;17.08;44.16
51081;BME280;37130;55.670;37.596;2022-08-21T00:54:40;100214.66;;;16.03;43.79
51081;BME280;37130;55.670;37.596;2022-08-21T00:57:17;100381.84;;;17.12;44.25
51081;BME280;37130;55.670;37.596;2022-08-21T01:00:09;100382.53;;;17.01;44.26
51081;BME280;37130;55.670;37.596;2022-08-21T01:02:56;100361.94;;;16.87;44.31
51081;BME280;37130;55.670;37.596;2022-08-21T01:05:36;100394.56;;;16.94;44.65
51081;BME280;37130;55.670;37.596;2022-08-21T01:08:16;100364.66;;;16.71;44.79
51081;BME280;37130;55.670;37.596;2022-08-21T01:10:48;100372.69;;;16.71;45.13
51081;BME280;37130;55.670;37.596;2022-08-21T01:13:26;100371.06;;;16.69;45.13
51081;BME280;37130;55.670;37.596;2022-08-21T01:15:59;100393.59;;;16.80;44.98
51081;BME280;37130;55.670;37.596;2022-08-21T01:18:52;100372.31;;;16.63;45.12
51081;BME280;37130;55.670;37.596;2022-08-21T01:21:48;100352.72;;;16.48;45.11
51081;BME280;37130;55.670;37.596;2022-08-21T01:24:24;100385.78;;;16.76;44.96
51081;BME280;37130;55.670;37.596;2022-08-21T01:27:06;100289.41;;;16.18;44.89
51081;BME280;37130;55.670;37.596;2022-08-21T01:29:53;100387.03;;;16.70;45.25
51081;BME280;37130;55.670;37.596;2022-08-21T01:32:43;100362.63;;;16.46;45.19
51081;BME280;37130;55.670;37.596;2022-08-21T01:35:23;100385.88;;;16.60;45.11
51081;BME280;37130;55.670;37.596;2022-08-21T01:38:03;100218.69;;;15.49;45.29
51081;BME280;37130;55.670;37.596;2022-08-21T01:40:32;100389.50;;;16.59;45.50
51081;BME280;37130;55.670;37.596;2022-08-21T01:43:11;100372.56;;;16.44;45.45
51081;BME280;37130;55.670;37.596;2022-08-21T01:45:48;100361.66;;;16.33;45.53
51081;BME280;37130;55.670;37.596;2022-08-21T01:48:23;100360.78;;;16.32;45.54
51081;BME280;37130;55.670;37.596;2022-08-21T01:50:59;100361.84;;;16.30;45.41
51081;BME280;37130;55.670;37.596;2022-08-21T01:53:37;100386.78;;;16.44;45.63
51081;BME280;37130;55.670;37.596;2022-08-21T01:56:13;100392.13;;;16.44;45.76
51081;BME280;37130;55.670;37.596;2022-08-21T01:59:00;100390.41;;;16.43;45.91
51081;BME280;37130;55.670;37.596;2022-08-21T02:01:36;100390.41;;;16.43;45.95
51081;BME280;37130;55.670;37.596;2022-08-21T02:04:10;100381.22;;;16.33;45.92
51081;BME280;37130;55.670;37.596;2022-08-21T02:06:43;100389.81;;;16.38;45.89
51081;BME280;37130;55.670;37.596;2022-08-21T02:09:14;100368.56;;;16.21;46.10
51081;BME280;37130;55.670;37.596;2022-08-21T02:11:46;100378.63;;;16.32;46.15
51081;BME280;37130;55.670;37.596;2022-08-21T02:14:20;100378.91;;;16.27;46.21
51081;BME280;37130;55.670;37.596;2022-08-21T02:17:08;100360.91;;;16.15;46.23
51081;BME280;37130;55.670;37.596;2022-08-21T02:20:43;100393.13;;;16.28;46.05
51081;BME280;37130;55.670;37.596;2022-08-21T02:23:27;100313.06;;;15.80;46.09
51081;BME280;37130;55.670;37.596;2022-08-21T02:26:26;100357.38;;;16.14;46.09
51081;BME280;37130;55.670;37.596;2022-08-21T02:29:00;100396.28;;;16.34;46.13
51081;BME280;37130;55.670;37.596;2022-08-21T02:32:08;100381.13;;;16.19;46.38
51081;BME280;37130;55.670;37.596;2022-08-21T02:34:44;100372.09;;;16.21;46.23
51081;BME280;37130;55.670;37.596;2022-08-21T02:37:41;100372.19;;;16.20;46.04
51081;BME280;37130;55.670;37.596;2022-08-21T02:41:28;100352.91;;;16.15;46.07
51081;BME280;37130;55.670;37.596;2022-08-21T02:44:04;100349.84;;;16.21;46.08
51081;BME280;37130;55.670;37.596;2022-08-21T02:46:47;100400.72;;;16.50;46.15
51081;BME280;37130;55.670;37.596;2022-08-21T02:49:24;100402.47;;;16.51;45.87
51081;BME280;37130;55.670;37.596;2022-08-21T02:52:20;100369.94;;;16.42;46.08
51081;BME280;37130;55.670;37.596;2022-08-21T02:54:56;100365.31;;;16.46;46.00
51081;BME280;37130;55.670;37.596;2022-08-21T02:57:28;100360.53;;;16.51;45.83
51081;BME280;37130;55.670;37.596;2022-08-21T03:00:08;100398.94;;;16.95;45.80
51081;BME280;37130;55.670;37.596;2022-08-21T03:02:39;100253.94;;;16.45;44.96
51081;BME280;37130;55.670;37.596;2022-08-21T03:05:19;100397.78;;;17.56;44.62
51081;BME280;37130;55.670;37.596;2022-08-21T03:07:52;100403.13;;;18.12;44.13
51081;BME280;37130;55.670;37.596;2022-08-21T03:10:33;100406.66;;;18.12;44.13
51081;BME280;37130;55.670;37.596;2022-08-21T03:13:16;100216.41;;;16.90;43.71
51081;BME280;37130;55.670;37.596;2022-08-21T03:15:49;100409.69;;;17.93;43.98
51081;BME280;37130;55.670;37.596;2022-08-21T03:18:47;100381.88;;;18.09;43.54
51081;BME280;37130;55.670;37.596;2022-08-21T03:21:47;100377.88;;;18.42;43.09
51081;BME280;37130;55.670;37.596;2022-08-21T03:24:53;100392.66;;;18.61;42.81
51081;BME280;37130;55.670;37.596;2022-08-21T03:27:31;100397.66;;;19.19;42.01
51081;BME280;37130;55.670;37.596;2022-08-21T03:30:05;100339.75;;;19.52;41.17
51081;BME280;37130;55.670;37.596;2022-08-21T03:32:36;100407.69;;;20.27;40.62
51081;BME280;37130;55.670;37.596;2022-08-21T03:35:04;100344.19;;;19.89;40.52
51081;BME280;37130;55.670;37.596;2022-08-21T03:37:32;100404.75;;;20.06;40.46
51081;BME280;37130;55.670;37.596;2022-08-21T03:39:59;100335.78;;;19.20;40.93
51081;BME280;37130;55.670;37.596;2022-08-21T03:42:29;100399.47;;;19.18;41.42
51081;BME280;37130;55.670;37.596;2022-08-21T03:44:56;100360.28;;;18.90;42.05
51081;BME280;37130;55.670;37.596;2022-08-21T03:47:24;100414.69;;;19.31;41.59
51081;BME280;37130;55.670;37.596;2022-08-21T03:49:52;100407.31;;;19.34;41.55
51081;BME280;37130;55.670;37.596;2022-08-21T03:52:20;100417.59;;;19.40;41.17
51081;BME280;37130;55.670;37.596;2022-08-21T03:54:47;100413.16;;;19.65;41.16
51081;BME280;37130;55.670;37.596;2022-08-21T03:57:15;100356.56;;;19.42;40.70
51081;BME280;37130;55.670;37.596;2022-08-21T03:59:43;100409.81;;;20.11;40.52
51081;BME280;37130;55.670;37.596;2022-08-21T04:02:13;100271.78;;;19.38;39.94
51081;BME280;37130;55.670;37.596;2022-08-21T04:04:43;100397.44;;;20.08;40.13
51081;BME280;37130;55.670;37.596;2022-08-21T04:07:10;100404.41;;;20.35;39.93
51081;BME280;37130;55.670;37.596;2022-08-21T04:09:38;100404.06;;;20.40;39.77
51081;BME280;37130;55.670;37.596;2022-08-21T04:12:07;100319.94;;;20.02;39.65
51081;BME280;37130;55.670;37.596;2022-08-21T04:14:35;100406.94;;;20.85;39.12
51081;BME280;37130;55.670;37.596;2022-08-21T04:17:02;100425.34;;;21.13;38.92
51081;BME280;37130;55.670;37.596;2022-08-21T04:19:30;100391.94;;;21.61;37.79
51081;BME280;37130;55.670;37.596;2022-08-21T04:21:58;100418.66;;;21.53;37.94
51081;BME280;37130;55.670;37.596;2022-08-21T04:24:25;100395.00;;;21.45;37.77
51081;BME280;37130;55.670;37.596;2022-08-21T04:26:56;100417.00;;;21.95;37.23
51081;BME280;37130;55.670;37.596;2022-08-21T04:29:23;100366.19;;;21.68;36.98
51081;BME280;37130;55.670;37.596;2022-08-21T04:31:51;100367.44;;;21.53;37.17
51081;BME280;37130;55.670;37.596;2022-08-21T04:34:19;100417.78;;;21.75;37.43
51081;BME280;37130;55.670;37.596;2022-08-21T04:36:46;100419.03;;;21.59;37.46
51081;BME280;37130;55.670;37.596;2022-08-21T04:39:14;100405.53;;;21.26;37.87
51081;BME280;37130;55.670;37.596;2022-08-21T04:41:41;100409.97;;;21.49;37.63
51081;BME280;37130;55.670;37.596;2022-08-21T04:44:09;100402.06;;;21.91;37.01
51081;BME280;37130;55.670;37.596;2022-08-21T04:46:36;100404.91;;;22.33;36.70
51081;BME280;37130;55.670;37.596;2022-08-21T04:49:04;100410.94;;;23.21;35.78
51081;BME280;37130;55.670;37.596;2022-08-21T04:51:34;100414.63;;;23.50;35.12
51081;BME280;37130;55.670;37.596;2022-08-21T04:54:14;100433.53;;;23.81;34.61
51081;BME280;37130;55.670;37.596;2022-08-21T04:56:48;100430.69;;;24.42;33.92
51081;BME280;37130;55.670;37.596;2022-08-21T04:59:39;100430.97;;;24.78;33.54
51081;BME280;37130;55.670;37.596;2022-08-21T05:02:09;100426.78;;;25.03;33.16
51081;BME280;37130;55.670;37.596;2022-08-21T05:04:40;100429.69;;;25.76;32.49
51081;BME280;37130;55.670;37.596;2022-08-21T05:07:13;100433.41;;;26.66;31.62
51081;BME280;37130;55.670;37.596;2022-08-21T05:09:45;100425.06;;;27.64;29.99
51081;BME280;37130;55.670;37.596;2022-08-21T05:12:12;100411.63;;;28.22;29.91
51081;BME280;37130;55.670;37.596;2022-08-21T05:14:40;100407.44;;;28.76;29.08
51081;BME280;37130;55.670;37.596;2022-08-21T05:17:09;100433.34;;;28.97;28.60
51081;BME280;37130;55.670;37.596;2022-08-21T05:19:37;100420.19;;;30.12;27.75
51081;BME280;37130;55.670;37.596;2022-08-21T05:22:05;100412.53;;;30.62;27.42
51081;BME280;37130;55.670;37.596;2022-08-21T05:24:33;100375.03;;;31.53;26.25
51081;BME280;37130;55.670;37.596;2022-08-21T05:27:01;100413.00;;;31.56;25.82
51081;BME280;37130;55.670;37.596;2022-08-21T05:29:29;100367.16;;;31.64;25.33
51081;BME280;37130;55.670;37.596;2022-08-21T05:31:57;100433.47;;;32.04;25.40
51081;BME280;37130;55.670;37.596;2022-08-21T05:34:24;100434.31;;;31.75;25.10
51081;BME280;37130;55.670;37.596;2022-08-21T05:36:52;100421.06;;;32.08;24.97
51081;BME280;37130;55.670;37.596;2022-08-21T05:39:20;100429.97;;;32.53;24.60
51081;BME280;37130;55.670;37.596;2022-08-21T05:41:48;100310.31;;;31.88;24.22
51081;BME280;37130;55.670;37.596;2022-08-21T05:44:16;100415.50;;;32.88;24.06
51081;BME280;37130;55.670;37.596;2022-08-21T05:46:46;100421.06;;;32.94;23.57
51081;BME280;37130;55.670;37.596;2022-08-21T05:49:13;100425.59;;;33.72;22.84
51081;BME280;37130;55.670;37.596;2022-08-21T05:51:41;100339.19;;;33.33;22.59
51081;BME280;37130;55.670;37.596;2022-08-21T05:54:09;100412.03;;;33.64;22.61
51081;BME280;37130;55.670;37.596;2022-08-21T05:56:36;100434.91;;;33.71;22.49
51081;BME280;37130;55.670;37.596;2022-08-21T05:59:04;100372.50;;;32.95;22.68
51081;BME280;37130;55.670;37.596;2022-08-21T06:01:34;100414.47;;;32.89;22.70
51081;BME280;37130;55.670;37.596;2022-08-21T06:04:03;100412.41;;;32.91;22.43
51081;BME280;37130;55.670;37.596;2022-08-21T06:06:30;100423.72;;;32.81;22.57
51081;BME280;37130;55.670;37.596;2022-08-21T06:08:58;100409.06;;;32.31;22.50
51081;BME280;37130;55.670;37.596;2022-08-21T06:11:25;100412.31;;;33.06;22.23
51081;BME280;37130;55.670;37.596;2022-08-21T06:13:55;100405.69;;;32.50;22.65
51081;BME280;37130;55.670;37.596;2022-08-21T06:16:23;100328.00;;;32.71;22.52
51081;BME280;37130;55.670;37.596;2022-08-21T06:18:51;100422.06;;;34.39;21.89
51081;BME280;37130;55.670;37.596;2022-08-21T06:21:19;100308.44;;;34.52;20.59
51081;BME280;37130;55.670;37.596;2022-08-21T06:23:47;100405.56;;;34.53;21.26
51081;BME280;37130;55.670;37.596;2022-08-21T06:26:14;100406.47;;;34.73;20.87
51081;BME280;37130;55.670;37.596;2022-08-21T06:28:42;100408.69;;;34.30;20.80
51081;BME280;37130;55.670;37.596;2022-08-21T06:31:14;100403.28;;;33.95;21.52
51081;BME280;37130;55.670;37.596;2022-08-21T06:33:42;100394.75;;;34.24;21.15
51081;BME280;37130;55.670;37.596;2022-08-21T06:36:10;100385.50;;;34.72;20.37
51081;BME280;37130;55.670;37.596;2022-08-21T06:38:38;100401.75;;;34.40;20.60
51081;BME280;37130;55.670;37.596;2022-08-21T06:41:07;100402.97;;;34.18;20.45
51081;BME280;37130;55.670;37.596;2022-08-21T06:43:36;100405.75;;;34.44;20.23
51081;BME280;37130;55.670;37.596;2022-08-21T06:46:06;100410.28;;;34.59;20.25
51081;BME280;37130;55.670;37.596;2022-08-21T06:48:34;100396.66;;;34.37;20.15
51081;BME280;37130;55.670;37.596;2022-08-21T06:51:02;100405.31;;;34.14;20.11
51081;BME280;37130;55.670;37.596;2022-08-21T06:53:30;100388.94;;;33.99;20.09
51081;BME280;37130;55.670;37.596;2022-08-21T06:55:58;100413.13;;;34.24;19.63
51081;BME280;37130;55.670;37.596;2022-08-21T06:58:25;100413.59;;;34.41;20.36
51081;BME280;37130;55.670;37.596;2022-08-21T07:00:53;100406.22;;;35.01;19.75
51081;BME280;37130;55.670;37.596;2022-08-21T07:03:34;100395.75;;;35.56;18.81
51081;BME280;37130;55.670;37.596;2022-08-21T07:06:04;100396.03;;;34.42;19.53
51081;BME280;37130;55.670;37.596;2022-08-21T07:08:33;100327.06;;;33.55;19.77
51081;BME280;37130;55.670;37.596;2022-08-21T07:11:03;100377.47;;;33.82;19.80
51081;BME280;37130;55.670;37.596;2022-08-21T07:13:31;100396.09;;;34.75;19.47
51081;BME280;37130;55.670;37.596;2022-08-21T07:15:59;100396.25;;;35.00;19.11
51081;BME280;37130;55.670;37.596;2022-08-21T07:18:30;100392.66;;;35.00;19.51
51081;BME280;37130;55.670;37.596;2022-08-21T07:21:00;100343.69;;;35.28;19.00
51081;BME280;37130;55.670;37.596;2022-08-21T07:23:32;100359.69;;;35.65;18.47
51081;BME280;37130;55.670;37.596;2022-08-21T07:26:01;100384.28;;;36.05;18.02
51081;BME280;37130;55.670;37.596;2022-08-21T07:28:30;100376.53;;;35.95;18.21
51081;BME280;37130;55.670;37.596;2022-08-21T07:30:59;100385.75;;;36.46;18.18
51081;BME280;37130;55.670;37.596;2022-08-21T07:33:28;100367.16;;;35.58;18.55
51081;BME280;37130;55.670;37.596;2022-08-21T07:35:56;100383.56;;;35.19;18.66
51081;BME280;37130;55.670;37.596;2022-08-21T07:38:24;100394.59;;;35.06;18.91
51081;BME280;37130;55.670;37.596;2022-08-21T07:40:54;100313.25;;;34.97;19.35
51081;BME280;37130;55.670;37.596;2022-08-21T07:43:22;100390.47;;;36.07;18.95
51081;BME280;37130;55.670;37.596;2022-08-21T07:45:50;100389.41;;;35.49;18.49
51081;BME280;37130;55.670;37.596;2022-08-21T07:48:18;100298.06;;;34.67;19.28
51081;BME280;37130;55.670;37.596;2022-08-21T07:50:45;100396.19;;;35.47;18.68
51081;BME280;37130;55.670;37.596;2022-08-21T07:53:13;100268.88;;;34.07;18.80
51081;BME280;37130;55.670;37.596;2022-08-21T07:55:42;100291.41;;;33.82;19.00
51081;BME280;37130;55.670;37.596;2022-08-21T07:58:09;100383.44;;;33.99;19.14
51081;BME280;37130;55.670;37.596;2022-08-21T08:00:37;100370.63;;;33.65;18.80
51081;BME280;37130;55.670;37.596;2022-08-21T08:03:04;100369.63;;;33.79;19.03
51081;BME280;37130;55.670;37.596;2022-08-21T08:05:32;100374.75;;;33.48;19.02
51081;BME280;37130;55.670;37.596;2022-08-21T08:07:59;100339.97;;;33.20;19.33
51081;BME280;37130;55.670;37.596;2022-08-21T08:10:27;100360.47;;;34.34;18.97
51081;BME280;37130;55.670;37.596;2022-08-21T08:12:55;100327.47;;;34.20;18.53
51081;BME280;37130;55.670;37.596;2022-08-21T08:15:25;100341.63;;;34.17;18.93
51081;BME280;37130;55.670;37.596;2022-08-21T08:17:54;100262.91;;;33.28;19.21
51081;BME280;37130;55.670;37.596;2022-08-21T08:20:23;100347.91;;;32.80;19.91
51081;BME280;37130;55.670;37.596;2022-08-21T08:22:53;100340.56;;;31.29;21.37
51081;BME280;37130;55.670;37.596;2022-08-21T08:25:22;100338.97;;;30.06;22.23
51081;BME280;37130;55.670;37.596;2022-08-21T08:27:50;100323.88;;;29.56;22.66
51081;BME280;37130;55.670;37.596;2022-08-21T08:30:19;100337.47;;;29.33;23.01
51081;BME280;37130;55.670;37.596;2022-08-21T08:32:48;100334.81;;;28.92;22.83
51081;BME280;37130;55.670;37.596;2022-08-21T08:35:17;100269.47;;;28.10;23.11
51081;BME280;37130;55.670;37.596;2022-08-21T08:37:50;100254.25;;;27.50;23.34
51081;BME280;37130;55.670;37.596;2022-08-21T08:43:30;100318.94;;;27.72;23.34
51081;BME280;37130;55.670;37.596;2022-08-21T08:46:04;100303.66;;;27.29;23.81
51081;BME280;37130;55.670;37.596;2022-08-21T08:48:58;100313.56;;;27.38;23.73
51081;BME280;37130;55.670;37.596;2022-08-21T08:51:45;100311.75;;;27.55;23.67
51081;BME280;37130;55.670;37.596;2022-08-21T08:54:27;100311.84;;;27.88;23.43
51081;BME280;37130;55.670;37.596;2022-08-21T08:57:00;100310.84;;;28.13;23.71
51081;BME280;37130;55.670;37.596;2022-08-21T08:59:43;100309.84;;;28.14;23.86
51081;BME280;37130;55.670;37.596;2022-08-21T09:02:14;100305.38;;;27.81;23.66
51081;BME280;37130;55.670;37.596;2022-08-21T09:04:43;100327.09;;;27.64;24.02
51081;BME280;37130;55.670;37.596;2022-08-21T09:07:15;100327.53;;;27.43;24.29
51081;BME280;37130;55.670;37.596;2022-08-21T09:12:40;100289.38;;;27.35;24.38
51081;BME280;37130;55.670;37.596;2022-08-21T09:20:54;100316.22;;;26.96;24.83
51081;BME280;37130;55.670;37.596;2022-08-21T09:26:22;100244.13;;;27.18;24.59
51081;BME280;37130;55.670;37.596;2022-08-21T09:28:58;100311.59;;;27.65;23.96
51081;BME280;37130;55.670;37.596;2022-08-21T09:31:32;100314.50;;;27.71;24.12
51081;BME280;37130;55.670;37.596;2022-08-21T09:34:02;100315.69;;;27.77;23.75
51081;BME280;37130;55.670;37.596;2022-08-21T09:36:50;100319.38;;;27.51;23.74
51081;BME280;37130;55.670;37.596;2022-08-21T09:39:28;100228.72;;;27.00;23.65
51081;BME280;37130;55.670;37.596;2022-08-21T09:42:01;100314.75;;;27.36;23.73
51081;BME280;37130;55.670;37.596;2022-08-21T09:44:31;100297.69;;;27.25;23.92
51081;BME280;37130;55.670;37.596;2022-08-21T09:46:59;100303.34;;;27.06;23.14
51081;BME280;37130;55.670;37.596;2022-08-21T09:49:38;100308.84;;;26.88;23.67
51081;BME280;37130;55.670;37.596;2022-08-21T09:52:22;100315.84;;;26.91;23.29
51081;BME280;37130;55.670;37.596;2022-08-21T09:54:54;100258.81;;;26.47;22.88
51081;BME280;37130;55.670;37.596;2022-08-21T09:57:30;100317.50;;;26.57;23.00
51081;BME280;37130;55.670;37.596;2022-08-21T10:00:26;100308.97;;;26.34;23.22
51081;BME280;37130;55.670;37.596;2022-08-21T10:02:54;100315.50;;;26.41;23.48
51081;BME280;37130;55.670;37.596;2022-08-21T10:05:25;100313.78;;;26.40;23.35
51081;BME280;37130;55.670;37.596;2022-08-21T10:07:53;100314.72;;;26.31;24.02
51081;BME280;37130;55.670;37.596;2022-08-21T10:10:26;100313.78;;;26.40;23.65
51081;BME280;37130;55.670;37.596;2022-08-21T10:18:38;100282.38;;;26.64;24.43
51081;BME280;37130;55.670;37.596;2022-08-21T10:24:00;100304.78;;;26.84;24.67
51081;BME280;37130;55.670;37.596;2022-08-21T10:32:19;100293.31;;;26.28;24.61
51081;BME280;37130;55.670;37.596;2022-08-21T10:40:33;100286.75;;;26.13;24.74
51081;BME280;37130;55.670;37.596;2022-08-21T10:43:24;100292.94;;;26.23;24.76
51081;BME280;37130;55.670;37.596;2022-08-21T10:48:58;100285.84;;;26.30;24.53
51081;BME280;37130;55.670;37.596;2022-08-21T10:57:05;100262.09;;;26.32;24.95
51081;BME280;37130;55.670;37.596;2022-08-21T10:59:48;100263.22;;;26.21;24.68
51081;BME280;37130;55.670;37.596;2022-08-21T11:02:27;100261.38;;;26.04;24.89
51081;BME280;37130;55.670;37.596;2022-08-21T11:05:02;100259.91;;;26.10;25.19
51081;BME280;37130;55.670;37.596;2022-08-21T11:07:51;100260.81;;;26.18;25.25
51081;BME280;37130;55.670;37.596;2022-08-21T11:10:25;100244.94;;;26.06;24.77
51081;BME280;37130;55.670;37.596;2022-08-21T11:13:08;100253.53;;;26.01;25.03
51081;BME280;37130;55.670;37.596;2022-08-21T11:15:55;100267.19;;;26.09;24.88
51081;BME280;37130;55.670;37.596;2022-08-21T11:18:25;100273.06;;;26.22;25.29
51081;BME280;37130;55.670;37.596;2022-08-21T11:21:20;100267.06;;;26.37;25.30
51081;BME280;37130;55.670;37.596;2022-08-21T11:26:52;100274.06;;;26.39;24.71
51081;BME280;37130;55.670;37.596;2022-08-21T11:29:31;100225.22;;;26.04;25.06
51081;BME280;37130;55.670;37.596;2022-08-21T11:35:10;100180.34;;;25.73;24.90
51081;BME280;37130;55.670;37.596;2022-08-21T11:41:21;100265.88;;;26.13;25.30
51081;BME280;37130;55.670;37.596;2022-08-21T11:47:05;100145.81;;;25.40;25.51
51081;BME280;37130;55.670;37.596;2022-08-21T11:49:53;100260.19;;;26.07;25.68
51081;BME280;37130;55.670;37.596;2022-08-21T11:52:44;100232.53;;;25.85;25.80
51081;BME280;37130;55.670;37.596;2022-08-21T11:55:36;100273.53;;;25.82;26.19
51081;BME280;37130;55.670;37.596;2022-08-21T12:00:53;100228.09;;;25.48;26.20
51081;BME280;37130;55.670;37.596;2022-08-21T12:05:57;100224.16;;;25.43;26.60
51081;BME280;37130;55.670;37.596;2022-08-21T12:16:33;100251.22;;;25.70;26.59
51081;BME280;37130;55.670;37.596;2022-08-21T12:27:21;100221.59;;;25.95;26.75
51081;BME280;37130;55.670;37.596;2022-08-21T12:29:50;100242.28;;;26.14;26.55
51081;BME280;37130;55.670;37.596;2022-08-21T12:32:25;100250.16;;;26.25;27.04
51081;BME280;37130;55.670;37.596;2022-08-21T12:35:09;100240.31;;;26.24;26.93
51081;BME280;37130;55.670;37.596;2022-08-21T12:38:07;100253.25;;;26.30;26.79
51081;BME280;37130;55.670;37.596;2022-08-21T12:40:47;100215.44;;;26.11;26.22
51081;BME280;37130;55.670;37.596;2022-08-21T12:45:52;100243.47;;;25.93;26.68
51081;BME280;37130;55.670;37.596;2022-08-21T12:48:27;100087.44;;;25.00;26.42
51081;BME280;37130;55.670;37.596;2022-08-21T12:51:06;100239.06;;;25.92;26.06
51081;BME280;37130;55.670;37.596;2022-08-21T12:53:47;100244.16;;;25.77;26.02
51081;BME280;37130;55.670;37.596;2022-08-21T12:56:18;100237.16;;;25.75;26.34
51081;BME280;37130;55.670;37.596;2022-08-21T12:59:04;100236.84;;;25.78;25.84
51081;BME280;37130;55.670;37.596;2022-08-21T13:01:50;100234.78;;;25.72;25.96
51081;BME280;37130;55.670;37.596;2022-08-21T13:04:19;100238.19;;;25.56;26.48
51081;BME280;37130;55.670;37.596;2022-08-21T13:06:53;100228.88;;;25.58;27.01
51081;BME280;37130;55.670;37.596;2022-08-21T13:09:26;100224.94;;;25.71;26.82
51081;BME280;37130;55.670;37.596;2022-08-21T13:11:55;100151.38;;;25.20;26.94
51081;BME280;37130;55.670;37.596;2022-08-21T13:14:39;100217.41;;;25.65;26.46
51081;BME280;37130;55.670;37.596;2022-08-21T13:17:21;100239.22;;;25.73;26.16
51081;BME280;37130;55.670;37.596;2022-08-21T13:20:08;100233.59;;;25.74;26.42
51081;BME280;37130;55.670;37.596;2022-08-21T13:22:43;100235.84;;;25.79;26.07
51081;BME280;37130;55.670;37.596;2022-08-21T13:25:15;100215.13;;;25.78;25.88
51081;BME280;37130;55.670;37.596;2022-08-21T13:27:56;100215.84;;;25.80;25.48
51081;BME280;37130;55.670;37.596;2022-08-21T13:30:25;100158.53;;;25.39;25.46
51081;BME280;37130;55.670;37.596;2022-08-21T13:33:00;100188.56;;;25.64;25.56
51081;BME280;37130;55.670;37.596;2022-08-21T13:35:35;100225.81;;;25.89;25.73
51081;BME280;37130;55.670;37.596;2022-08-21T13:38:15;100222.25;;;25.89;25.97
51081;BME280;37130;55.670;37.596;2022-08-21T13:40:55;100050.66;;;24.79;25.53
51081;BME280;37130;55.670;37.596;2022-08-21T13:43:31;100184.78;;;25.56;25.76
51081;BME280;37130;55.670;37.596;2022-08-21T13:46:02;100202.84;;;25.66;25.49
51081;BME280;37130;55.670;37.596;2022-08-21T13:48:34;100214.59;;;25.74;25.55
51081;BME280;37130;55.670;37.596;2022-08-21T13:51:03;100211.38;;;25.71;25.18
51081;BME280;37130;55.670;37.596;2022-08-21T13:53:35;100183.06;;;25.55;25.31
51081;BME280;37130;55.670;37.596;2022-08-21T13:56:08;100211.28;;;25.63;25.61
51081;BME280;37130;55.670;37.596;2022-08-21T13:58:44;100156.78;;;25.20;25.27
51081;BME280;37130;55.670;37.596;2022-08-21T14:01:33;100213.22;;;25.52;25.77
51081;BME280;37130;55.670;37.596;2022-08-21T14:04:16;100199.59;;;25.44;25.91
51081;BME280;37130;55.670;37.596;2022-08-21T14:06:47;100189.72;;;25.43;25.68
51081;BME280;37130;55.670;37.596;2022-08-21T14:12:10;100202.00;;;25.47;26.08
51081;BME280;37130;55.670;37.596;2022-08-21T14:14:51;100133.44;;;25.09;25.71
51081;BME280;37130;55.670;37.596;2022-08-21T14:17:31;100165.88;;;25.29;25.63
51081;BME280;37130;55.670;37.596;2022-08-21T14:20:05;100179.66;;;25.35;26.02
51081;BME280;37130;55.670;37.596;2022-08-21T14:22:47;100211.50;;;25.51;25.96
51081;BME280;37130;55.670;37.596;2022-08-21T14:30:41;100199.41;;;25.28;25.59
51081;BME280;37130;55.670;37.596;2022-08-21T14:35:51;100180.66;;;25.17;25.55
51081;BME280;37130;55.670;37.596;2022-08-21T14:38:23;100197.84;;;25.25;25.54
51081;BME280;37130;55.670;37.596;2022-08-21T14:40:57;100187.50;;;25.21;25.60
51081;BME280;37130;55.670;37.596;2022-08-21T14:43:30;100124.97;;;24.77;25.64
51081;BME280;37130;55.670;37.596;2022-08-21T14:46:00;100210.25;;;25.28;25.61
51081;BME280;37130;55.670;37.596;2022-08-21T14:48:29;100159.06;;;24.97;26.02
51081;BME280;37130;55.670;37.596;2022-08-21T14:50:58;100211.66;;;25.32;26.15